createdAt,value
2019-05-06T00:02:07.237Z,74.80
2019-05-06T00:04:34.196Z,74.80
2019-05-06T00:07:00.855Z,74.80
2019-05-06T00:09:27.375Z,74.80
2019-05-06T00:11:54.600Z,74.80
2019-05-06T00:14:23.470Z,74.90
2019-05-06T00:16:50.266Z,75.20
2019-05-06T00:19:16.789Z,75.00
2019-05-06T00:21:44.337Z,75.00
2019-05-06T00:24:11.027Z,75.20
2019-05-06T00:26:48.104Z,75.10
2019-05-06T00:29:16.531Z,75.20
2019-05-06T00:31:44.006Z,75.20
2019-05-06T00:34:10.575Z,75.40
2019-05-06T00:36:37.105Z,75.50
2019-05-06T00:41:48.329Z,75.50
2019-05-06T00:44:14.851Z,75.60
2019-05-06T00:46:41.388Z,75.80
2019-05-06T00:49:07.935Z,75.80
2019-05-06T00:51:34.459Z,76.20
2019-05-06T00:54:15.358Z,76.20
2019-05-06T00:56:41.920Z,76.60
2019-05-06T00:59:08.444Z,76.60
2019-05-06T01:01:35.236Z,77.50
2019-05-06T01:04:04.545Z,76.80
2019-05-06T01:06:31.298Z,76.70
2019-05-06T01:08:57.922Z,76.80
2019-05-06T01:11:24.453Z,77.10
2019-05-06T01:13:54.518Z,77.40
2019-05-06T01:16:21.410Z,77.80
2019-05-06T01:18:47.929Z,77.70
2019-05-06T01:21:14.725Z,77.50
2019-05-06T01:23:43.949Z,77.40
2019-05-06T01:26:15.156Z,77.50
2019-05-06T01:28:43.537Z,77.60
2019-05-06T01:31:10.127Z,77.70
2019-05-06T01:33:36.645Z,77.50
2019-05-06T01:36:04.514Z,77.40
2019-05-06T01:38:40.095Z,77.40
2019-05-06T01:41:06.628Z,77.30
2019-05-06T01:43:35.111Z,77.20
2019-05-06T01:46:01.644Z,77.20
2019-05-06T01:48:46.902Z,77.10
2019-05-06T01:51:21.421Z,77.00
2019-05-06T01:53:49.162Z,77.00
2019-05-06T01:56:15.888Z,77.00
2019-05-06T01:58:43.961Z,77.00
2019-05-06T02:01:10.741Z,77.10
2019-05-06T02:03:37.368Z,77.20
2019-05-06T02:06:04.872Z,77.10
2019-05-06T02:08:33.572Z,77.30
2019-05-06T02:10:59.957Z,77.10
2019-05-06T02:13:26.591Z,77.50
2019-05-06T02:15:54.783Z,77.40
2019-05-06T02:18:21.661Z,77.80
2019-05-06T02:20:50.099Z,77.90
2019-05-06T02:23:18.537Z,77.80
2019-05-06T02:25:46.984Z,77.90
2019-05-06T02:28:14.274Z,78.10
2019-05-06T02:30:59.313Z,78.40
2019-05-06T02:33:35.585Z,78.30
2019-05-06T02:36:06.590Z,78.40
2019-05-06T02:38:39.298Z,78.50
2019-05-06T02:41:03.537Z,78.40
2019-05-06T02:43:29.980Z,78.50
2019-05-06T02:45:57.312Z,78.70
2019-05-06T02:48:25.738Z,78.70
2019-05-06T02:50:53.851Z,79.00
2019-05-06T02:53:23.606Z,79.40
2019-05-06T02:55:52.872Z,79.20
2019-05-06T02:58:18.749Z,78.90
2019-05-06T03:00:45.252Z,79.00
2019-05-06T03:03:13.908Z,79.10
2019-05-06T03:05:43.600Z,79.10
2019-05-06T03:08:08.884Z,79.10
2019-05-06T03:10:35.408Z,79.00
2019-05-06T03:13:02.978Z,78.90
2019-05-06T03:15:29.752Z,78.90
2019-05-06T03:17:56.288Z,78.90
2019-05-06T03:21:24.732Z,79.00
2019-05-06T03:23:54.252Z,79.50
2019-05-06T03:26:23.386Z,79.80
2019-05-06T03:28:49.281Z,79.50
2019-05-06T03:31:17.057Z,79.40
2019-05-06T03:33:58.484Z,79.30
2019-05-06T03:36:22.922Z,79.30
2019-05-06T03:38:43.204Z,79.20
2019-05-06T03:41:09.181Z,79.50
2019-05-06T03:43:35.711Z,79.20
2019-05-06T03:46:13.986Z,79.20
2019-05-06T03:48:53.721Z,80.10
2019-05-06T03:51:23.109Z,79.40
2019-05-06T03:53:49.579Z,79.30
2019-05-06T03:56:19.733Z,79.60
2019-05-06T03:58:47.554Z,79.70
2019-05-06T04:01:15.072Z,80.30
2019-05-06T04:03:47.482Z,80.10
2019-05-06T04:06:13.530Z,79.90
2019-05-06T04:08:39.480Z,79.90
2019-05-06T04:11:06.301Z,80.30
2019-05-06T04:13:33.735Z,80.60
2019-05-06T04:16:03.898Z,80.30
2019-05-06T04:18:38.595Z,80.70
2019-05-06T04:21:08.951Z,80.90
2019-05-06T04:23:54.041Z,80.60
2019-05-06T04:26:23.906Z,80.80
2019-05-06T04:28:53.450Z,80.80
2019-05-06T04:31:22.710Z,80.70
2019-05-06T04:34:05.368Z,80.80
2019-05-06T04:36:17.913Z,80.60
2019-05-06T04:38:44.544Z,80.50
2019-05-06T04:41:13.651Z,80.50
2019-05-06T04:43:40.326Z,80.80
2019-05-06T04:46:06.932Z,81.10
2019-05-06T04:48:33.461Z,80.90
2019-05-06T04:51:03.062Z,80.70
2019-05-06T04:53:28.528Z,80.40
2019-05-06T04:55:55.084Z,80.10
2019-05-06T04:58:23.272Z,80.30
2019-05-06T05:00:53.136Z,80.00
2019-05-06T05:03:19.059Z,79.80
2019-05-06T05:05:45.930Z,79.60
2019-05-06T05:08:13.331Z,79.90
2019-05-06T05:10:43.176Z,80.00
2019-05-06T05:13:17.439Z,80.10
2019-05-06T05:15:46.888Z,80.30
2019-05-06T05:18:18.413Z,79.40
2019-05-06T05:20:46.780Z,80.10
2019-05-06T05:23:13.480Z,80.30
2019-05-06T05:25:40.009Z,80.30
2019-05-06T05:28:06.546Z,80.20
2019-05-06T05:30:33.440Z,79.80
2019-05-06T05:33:02.623Z,80.20
2019-05-06T05:35:29.302Z,80.30
2019-05-06T05:37:55.819Z,80.70
2019-05-06T05:40:22.591Z,80.40
2019-05-06T05:42:52.153Z,81.40
2019-05-06T05:45:18.796Z,81.60
2019-05-06T05:47:46.620Z,81.50
2019-05-06T05:50:22.849Z,82.00
2019-05-06T05:52:49.461Z,82.50
2019-05-06T05:55:18.203Z,82.40
2019-05-06T05:57:44.721Z,81.80
2019-05-06T06:00:12.935Z,82.00
2019-05-06T06:02:43.444Z,82.20
2019-05-06T06:05:08.601Z,81.80
2019-05-06T06:07:35.321Z,82.40
2019-05-06T06:10:14.837Z,82.40
2019-05-06T06:12:42.897Z,82.60
2019-05-06T06:15:12.605Z,83.50
2019-05-06T06:17:44.051Z,83.40
2019-05-06T06:20:29.673Z,83.10
2019-05-06T06:22:57.850Z,83.00
2019-05-06T06:25:24.801Z,83.80
2019-05-06T06:27:52.218Z,83.40
2019-05-06T06:30:22.195Z,84.20
2019-05-06T06:32:49.223Z,84.50
2019-05-06T06:35:20.326Z,84.20
2019-05-06T06:37:52.495Z,83.40
2019-05-06T06:40:22.299Z,84.20
2019-05-06T06:42:52.435Z,84.10
2019-05-06T06:45:19.202Z,84.10
2019-05-06T06:47:46.700Z,84.40
2019-05-06T06:50:13.360Z,84.40
2019-05-06T06:52:42.034Z,85.00
2019-05-06T06:55:08.524Z,85.50
2019-05-06T06:57:37.687Z,84.70
2019-05-06T07:00:06.725Z,83.90
2019-05-06T07:02:35.148Z,83.80
2019-05-06T07:05:05.582Z,83.60
2019-05-06T07:07:43.980Z,82.80
2019-05-06T07:10:08.501Z,83.10
2019-05-06T07:12:35.020Z,83.20
2019-05-06T07:15:04.753Z,83.60
2019-05-06T07:17:32.778Z,83.50
2019-05-06T07:20:13.442Z,82.90
2019-05-06T07:22:42.244Z,83.50
2019-05-06T07:25:08.960Z,83.70
2019-05-06T07:27:35.597Z,83.30
2019-05-06T07:30:05.919Z,82.40
2019-05-06T07:32:32.641Z,82.10
2019-05-06T07:34:59.194Z,83.30
2019-05-06T07:37:25.722Z,83.00
2019-05-06T07:39:53.073Z,82.60
2019-05-06T07:42:22.761Z,82.70
2019-05-06T07:44:52.891Z,81.80
2019-05-06T07:47:23.779Z,81.30
2019-05-06T07:49:49.961Z,80.90
2019-05-06T07:52:17.340Z,80.70
2019-05-06T07:54:44.224Z,80.60
2019-05-06T07:57:12.736Z,80.10
2019-05-06T07:59:39.285Z,79.90
2019-05-06T08:02:05.825Z,79.60
2019-05-06T08:04:32.576Z,79.70
2019-05-06T08:06:59.184Z,79.60
2019-05-06T08:09:25.844Z,79.70
2019-05-06T08:11:53.017Z,80.10
2019-05-06T08:14:19.793Z,80.40
2019-05-06T08:16:53.921Z,80.10
2019-05-06T08:19:22.611Z,79.90
2019-05-06T08:21:53.652Z,79.00
2019-05-06T08:24:20.164Z,79.00
2019-05-06T08:26:46.697Z,78.50
2019-05-06T08:29:15.826Z,78.20
2019-05-06T08:31:43.094Z,78.00
2019-05-06T08:34:12.129Z,77.60
2019-05-06T08:36:42.627Z,77.60
2019-05-06T08:39:09.459Z,77.00
2019-05-06T08:41:36.087Z,76.50
2019-05-06T08:44:03.232Z,76.40
2019-05-06T08:46:32.451Z,76.00
2019-05-06T08:48:58.199Z,76.60
2019-05-06T08:51:29.512Z,76.50
2019-05-06T08:53:57.947Z,76.60
2019-05-06T08:56:24.469Z,77.20
2019-05-06T08:58:52.811Z,77.20
2019-05-06T09:01:26.420Z,77.00
2019-05-06T09:04:07.978Z,77.10
2019-05-06T09:06:29.293Z,76.60
2019-05-06T09:08:52.167Z,76.50
2019-05-06T09:11:18.766Z,75.50
2019-05-06T09:13:45.327Z,75.00
2019-05-06T09:16:12.986Z,73.30
2019-05-06T09:18:42.337Z,73.20
2019-05-06T09:21:08.299Z,73.10
2019-05-06T09:23:34.827Z,73.90
2019-05-06T09:26:03.060Z,74.10
2019-05-06T09:28:43.712Z,74.20
2019-05-06T09:31:28.986Z,74.60
2019-05-06T09:34:14.322Z,74.30
2019-05-06T09:36:50.510Z,73.90
2019-05-06T09:39:09.287Z,73.50
2019-05-06T09:41:35.858Z,73.80
2019-05-06T09:44:03.166Z,73.30
2019-05-06T09:46:32.086Z,73.80
2019-05-06T09:48:58.199Z,73.90
2019-05-06T09:51:24.823Z,72.80
2019-05-06T09:54:03.372Z,72.50
2019-05-06T09:56:30.582Z,73.10
2019-05-06T09:58:57.118Z,72.20
2019-05-06T10:01:23.632Z,72.40
2019-05-06T10:03:50.158Z,70.90
2019-05-06T10:06:16.686Z,69.10
2019-05-06T10:08:43.424Z,67.00
2019-05-06T10:11:10.002Z,63.80
2019-05-06T10:13:36.628Z,64.90
2019-05-06T10:16:03.246Z,64.30
2019-05-06T10:18:30.156Z,63.40
2019-05-06T10:20:56.687Z,64.00
2019-05-06T10:23:23.217Z,63.40
2019-05-06T10:25:49.744Z,64.10
2019-05-06T10:28:23.112Z,65.10
2019-05-06T10:30:49.283Z,65.10
2019-05-06T10:33:20.363Z,65.40
2019-05-06T10:35:47.370Z,64.50
2019-05-06T10:38:53.017Z,65.90
2019-05-06T10:41:32.830Z,65.00
2019-05-06T10:44:33.873Z,63.70
2019-05-06T10:47:02.837Z,66.70
2019-05-06T10:49:28.963Z,66.00
2019-05-06T10:51:57.402Z,63.70
2019-05-06T10:54:23.921Z,63.10
2019-05-06T10:57:04.295Z,62.20
2019-05-06T10:59:32.583Z,56.20
2019-05-06T11:02:05.637Z,54.60
2019-05-06T11:04:33.118Z,54.80
2019-05-06T11:06:59.853Z,56.10
2019-05-06T11:09:26.382Z,56.80
2019-05-06T11:11:52.889Z,56.90
2019-05-06T11:14:19.472Z,56.60
2019-05-06T11:16:45.993Z,54.90
2019-05-06T11:19:13.314Z,57.80
2019-05-06T11:21:42.245Z,54.40
2019-05-06T11:24:08.478Z,56.90
2019-05-06T11:26:35.011Z,57.20
2019-05-06T11:29:20.137Z,58.00
2019-05-06T11:32:02.392Z,58.70
2019-05-06T11:34:42.071Z,58.40
2019-05-06T11:40:06.592Z,60.60
2019-05-06T11:42:35.814Z,60.90
2019-05-06T11:45:04.650Z,61.70
2019-05-06T11:47:32.445Z,61.40
2019-05-06T11:49:59.431Z,61.90
2019-05-06T11:52:25.957Z,62.00
2019-05-06T11:54:52.924Z,63.30
2019-05-06T11:57:19.651Z,62.70
2019-05-06T11:59:46.180Z,64.00
2019-05-06T12:02:17.277Z,64.10
2019-05-06T12:04:43.810Z,64.50
2019-05-06T12:07:14.640Z,64.40
2019-05-06T12:09:39.027Z,64.20
2019-05-06T12:12:05.660Z,64.40
2019-05-06T12:14:32.278Z,64.30
2019-05-06T12:16:58.930Z,64.40
2019-05-06T12:19:25.450Z,64.80
2019-05-06T12:21:51.979Z,63.90
2019-05-06T12:24:18.509Z,63.60
2019-05-06T12:26:45.149Z,62.40
2019-05-06T12:29:12.722Z,61.60
2019-05-06T12:31:42.005Z,61.20
2019-05-06T12:34:07.940Z,61.10
2019-05-06T12:36:34.457Z,60.90
2019-05-06T12:39:15.684Z,60.50
2019-05-06T12:41:49.469Z,61.30
2019-05-06T12:44:16.075Z,61.00
2019-05-06T12:46:44.505Z,59.90
2019-05-06T12:49:12.741Z,58.90
2019-05-06T12:51:39.405Z,59.80
2019-05-06T12:54:06.036Z,59.50
2019-05-06T12:56:32.642Z,59.30
2019-05-06T12:58:59.174Z,58.10
2019-05-06T13:01:25.723Z,58.70
2019-05-06T13:03:52.689Z,58.70
2019-05-06T13:06:19.353Z,58.50
2019-05-06T13:08:58.822Z,57.70
2019-05-06T13:11:14.491Z,56.00
2019-05-06T13:13:55.541Z,56.10
2019-05-06T13:16:09.436Z,54.40
2019-05-06T13:18:35.954Z,57.80
2019-05-06T13:21:06.428Z,56.90
2019-05-06T13:23:34.981Z,56.30
2019-05-06T13:26:02.716Z,54.30
2019-05-06T13:28:33.270Z,53.90
2019-05-06T13:31:13.501Z,54.90
2019-05-06T13:33:30.020Z,55.70
2019-05-06T13:35:56.646Z,57.10
2019-05-06T13:38:23.170Z,57.60
2019-05-06T13:40:54.839Z,58.20
2019-05-06T13:43:18.127Z,58.80
2019-05-06T13:46:07.338Z,59.30
2019-05-06T13:48:35.419Z,59.70
2019-05-06T13:51:07.870Z,59.20
2019-05-06T13:53:39.553Z,59.50
2019-05-06T13:56:04.682Z,59.40
2019-05-06T13:58:32.339Z,59.40
2019-05-06T14:01:02.888Z,58.40
2019-05-06T14:03:29.388Z,58.10
2019-05-06T14:05:55.942Z,57.50
2019-05-06T14:08:22.466Z,57.40
2019-05-06T14:10:57.563Z,56.30
2019-05-06T14:13:17.473Z,56.20
2019-05-06T14:15:43.999Z,54.90
2019-05-06T14:18:13.093Z,55.40
2019-05-06T14:20:39.304Z,55.50
2019-05-06T14:23:05.832Z,55.80
2019-05-06T14:25:34.356Z,56.30
2019-05-06T14:28:12.386Z,55.70
2019-05-06T14:30:39.166Z,56.20
2019-05-06T14:33:05.703Z,56.50
2019-05-06T14:35:32.599Z,57.10
2019-05-06T14:37:59.145Z,58.00
2019-05-06T14:40:27.466Z,57.30
2019-05-06T14:42:53.998Z,56.80
2019-05-06T14:45:22.119Z,57.40
2019-05-06T14:47:48.824Z,57.00
2019-05-06T14:50:15.556Z,57.00
2019-05-06T14:52:42.737Z,57.10
2019-05-06T14:55:15.238Z,57.40
2019-05-06T14:57:42.804Z,57.80
2019-05-06T15:00:12.215Z,57.70
2019-05-06T15:02:38.817Z,58.20
2019-05-06T15:05:05.617Z,58.10
2019-05-06T15:07:32.966Z,58.20
2019-05-06T15:10:16.522Z,58.40
2019-05-06T15:12:27.992Z,58.40
2019-05-06T15:14:54.536Z,58.70
2019-05-06T15:17:22.981Z,58.90
2019-05-06T15:19:49.473Z,58.80
2019-05-06T15:22:15.990Z,58.50
2019-05-06T15:24:42.842Z,58.50
2019-05-06T15:27:09.437Z,58.70
2019-05-06T15:29:35.972Z,58.50
2019-05-06T15:32:10.104Z,58.70
2019-05-06T15:34:36.630Z,58.80
2019-05-06T15:37:05.061Z,59.00
2019-05-06T15:39:32.657Z,58.40
2019-05-06T15:41:59.309Z,58.20
2019-05-06T15:44:25.934Z,58.00
2019-05-06T15:46:52.861Z,58.00
2019-05-06T15:49:19.484Z,58.10
2019-05-06T15:51:46.004Z,57.80
2019-05-06T15:54:12.588Z,58.20
2019-05-06T15:56:39.125Z,58.30
2019-05-06T15:59:05.670Z,58.10
2019-05-06T16:01:33.501Z,58.30
2019-05-06T16:04:00.670Z,58.30
2019-05-06T16:06:27.190Z,57.70
2019-05-06T16:08:53.722Z,57.80
2019-05-06T16:11:22.267Z,57.90
2019-05-06T16:13:48.676Z,57.40
2019-05-06T16:16:15.235Z,57.30
2019-05-06T16:18:42.418Z,57.10
2019-05-06T16:21:09.032Z,57.00
2019-05-06T16:23:42.272Z,57.00
2019-05-06T16:26:09.179Z,57.50
2019-05-06T16:28:35.715Z,57.90
2019-05-06T16:31:02.527Z,58.10
2019-05-06T16:33:29.117Z,58.20
2019-05-06T16:35:55.636Z,58.40
2019-05-06T16:38:22.975Z,58.40
2019-05-06T16:40:49.714Z,58.20
2019-05-06T16:43:16.231Z,58.10
2019-05-06T16:45:45.270Z,58.30
2019-05-06T16:48:12.959Z,58.60
2019-05-06T16:50:39.649Z,58.50
2019-05-06T16:53:06.162Z,58.90
2019-05-06T16:55:55.035Z,58.90
2019-05-06T16:58:24.619Z,58.70
2019-05-06T17:00:52.416Z,58.70
2019-05-06T17:03:33.223Z,58.40
2019-05-06T17:06:01.679Z,58.20
2019-05-06T17:08:28.731Z,58.10
2019-05-06T17:10:55.281Z,57.80
2019-05-06T17:13:22.833Z,57.90
2019-05-06T17:15:50.854Z,57.90
2019-05-06T17:18:18.315Z,58.10
2019-05-06T17:20:44.853Z,58.10
2019-05-06T17:23:13.118Z,58.50
2019-05-06T17:25:39.918Z,58.40
2019-05-06T17:28:17.529Z,59.20
2019-05-06T17:30:45.973Z,59.00
2019-05-06T17:33:29.618Z,59.00
2019-05-06T17:35:56.151Z,59.10
2019-05-06T17:38:24.574Z,59.40
2019-05-06T17:40:52.432Z,59.70
2019-05-06T17:43:19.195Z,59.80
2019-05-06T17:45:59.392Z,59.90
2019-05-06T17:48:18.095Z,59.80
2019-05-06T17:50:46.526Z,60.40
2019-05-06T17:53:13.069Z,60.40
2019-05-06T17:55:39.579Z,60.60
2019-05-06T17:58:06.095Z,60.80
2019-05-06T18:00:32.717Z,60.90
2019-05-06T18:02:59.239Z,60.70
2019-05-06T18:05:25.764Z,61.00
2019-05-06T18:07:52.371Z,61.30
2019-05-06T18:10:18.895Z,61.60
2019-05-06T18:12:45.423Z,61.70
2019-05-06T18:15:13.421Z,61.80
2019-05-06T18:17:39.996Z,61.70
2019-05-06T18:20:07.549Z,61.90
2019-05-06T18:22:34.709Z,61.90
2019-05-06T18:25:02.285Z,62.10
2019-05-06T18:27:35.958Z,62.20
2019-05-06T18:30:15.079Z,62.40
2019-05-06T18:32:33.284Z,62.30
2019-05-06T18:35:02.472Z,62.40
2019-05-06T18:37:28.804Z,62.50
2019-05-06T18:39:55.433Z,62.70
2019-05-06T18:42:23.856Z,62.60
2019-05-06T18:44:51.577Z,62.80
2019-05-06T18:47:18.111Z,62.90
2019-05-06T18:49:44.769Z,62.90
2019-05-06T18:52:13.177Z,62.90
2019-05-06T18:54:40.006Z,62.90
2019-05-06T18:57:06.520Z,63.50
2019-05-06T18:59:34.241Z,63.30
2019-05-06T19:02:02.192Z,63.30
2019-05-06T19:04:34.625Z,63.40
2019-05-06T19:07:10.646Z,63.50
2019-05-06T19:09:34.547Z,63.60
2019-05-06T19:12:03.293Z,63.80
2019-05-06T19:14:29.521Z,63.90
2019-05-06T19:16:56.156Z,63.90
2019-05-06T19:19:23.320Z,64.10
2019-05-06T19:21:52.275Z,64.50
2019-05-06T19:24:18.519Z,64.80
2019-05-06T19:26:45.043Z,64.90
2019-05-06T19:29:12.246Z,65.20
2019-05-06T19:31:39.132Z,65.40
2019-05-06T19:34:05.664Z,65.50
2019-05-06T19:36:34.760Z,65.80
2019-05-06T19:39:02.256Z,65.90
2019-05-06T19:41:29.416Z,66.00
2019-05-06T19:43:55.953Z,66.20
2019-05-06T19:46:22.463Z,66.30
2019-05-06T19:48:48.987Z,66.30
2019-05-06T19:51:15.514Z,66.40
2019-05-06T19:53:42.867Z,66.50
2019-05-06T19:56:09.490Z,66.50
2019-05-06T19:58:36.139Z,66.60
2019-05-06T20:01:04.224Z,66.70
2019-05-06T20:03:32.734Z,66.60
2019-05-06T20:06:19.549Z,66.50
2019-05-06T20:08:48.000Z,66.50
2019-05-06T20:11:25.418Z,66.30
2019-05-06T20:13:52.622Z,66.20
2019-05-06T20:16:20.291Z,66.00
2019-05-06T20:18:46.881Z,66.00
2019-05-06T20:21:13.616Z,66.00
2019-05-06T20:23:42.366Z,66.00
2019-05-06T20:26:08.581Z,65.70
2019-05-06T20:28:35.110Z,65.90
2019-05-06T20:31:02.481Z,66.00
2019-05-06T20:33:29.131Z,66.00
2019-05-06T20:35:55.680Z,65.90
2019-05-06T20:38:23.171Z,65.90
2019-05-06T20:40:49.938Z,65.80
2019-05-06T20:43:20.629Z,65.90
2019-05-06T20:45:45.017Z,65.80
2019-05-06T20:48:12.956Z,66.50
2019-05-06T20:50:39.695Z,65.90
2019-05-06T20:53:06.220Z,65.70
2019-05-06T20:55:35.520Z,65.60
2019-05-06T20:58:02.755Z,65.70
2019-05-06T21:00:29.419Z,65.80
2019-05-06T21:02:56.049Z,65.60
2019-05-06T21:05:22.903Z,65.50
2019-05-06T21:07:49.513Z,65.50
2019-05-06T21:10:16.887Z,65.80
2019-05-06T21:12:43.407Z,65.90
2019-05-06T21:15:10.551Z,65.90
2019-05-06T21:17:37.769Z,65.90
2019-05-06T21:20:05.200Z,65.80
2019-05-06T21:22:32.056Z,66.00
2019-05-06T21:24:59.289Z,66.00
2019-05-06T21:27:25.910Z,66.20
2019-05-06T21:29:52.863Z,66.90
2019-05-06T21:32:21.891Z,65.90
2019-05-06T21:34:48.126Z,65.60
2019-05-06T21:37:14.645Z,65.90
2019-05-06T21:39:42.376Z,65.90
2019-05-06T21:42:09.012Z,66.20
2019-05-06T21:44:35.545Z,66.20
2019-05-06T21:47:02.878Z,66.20
2019-05-06T21:49:29.698Z,66.10
2019-05-06T21:51:56.222Z,66.00
2019-05-06T21:54:23.252Z,66.00
2019-05-06T21:56:49.778Z,65.90
2019-05-06T21:59:16.311Z,65.90
2019-05-06T22:01:43.233Z,65.80
2019-05-06T22:04:09.865Z,65.90
2019-05-06T22:06:36.380Z,65.80
2019-05-06T22:09:04.912Z,66.60
2019-05-06T22:11:32.312Z,65.70
2019-05-06T22:14:01.572Z,65.60
2019-05-06T22:16:27.297Z,65.70
2019-05-06T22:18:53.814Z,65.80
2019-05-06T22:21:22.662Z,65.90
2019-05-06T22:23:59.463Z,66.00
2019-05-06T22:26:27.729Z,66.20
2019-05-06T22:28:54.459Z,66.30
2019-05-06T22:31:22.192Z,66.20
2019-05-06T22:33:50.029Z,66.60
2019-05-06T22:36:16.660Z,66.30
2019-05-06T22:38:44.289Z,66.30
2019-05-06T22:41:11.623Z,67.00
2019-05-06T22:43:38.143Z,66.20
2019-05-06T22:46:04.671Z,66.20
2019-05-06T22:48:32.365Z,66.20
2019-05-06T22:50:59.036Z,66.30
2019-05-06T22:53:25.554Z,66.30
2019-05-06T22:55:53.284Z,66.40
2019-05-06T22:58:19.809Z,66.30
2019-05-06T23:00:53.542Z,66.40
2019-05-06T23:03:22.710Z,66.40
2019-05-06T23:05:49.417Z,66.50
2019-05-06T23:08:15.934Z,66.50
2019-05-06T23:10:42.568Z,66.40
2019-05-06T23:13:09.587Z,66.30
2019-05-06T23:15:36.115Z,66.30
2019-05-06T23:18:02.631Z,66.30
2019-05-06T23:20:29.194Z,66.30
2019-05-06T23:22:55.715Z,66.50
2019-05-06T23:25:22.243Z,66.50
2019-05-06T23:27:48.771Z,66.60
2019-05-06T23:30:15.298Z,66.60
2019-05-06T23:32:42.374Z,66.40
2019-05-06T23:35:09.354Z,66.40
2019-05-06T23:38:33.842Z,66.70
2019-05-06T23:41:56.580Z,66.90
2019-05-06T23:45:22.752Z,67.10
2019-05-06T23:48:45.750Z,67.00
2019-05-06T23:52:08.941Z,67.00
2019-05-06T23:55:31.942Z,66.40
2019-05-06T23:57:58.163Z,67.00
